Time;durP1;ratioP1;P1;durP2;ratioP2;P2;SDS_P1;SDS_P2;PMS_P1;PMS_P2;Temp;Humidity;BMP_temperature;BMP_pressure;BME280_temperature;BME280_humidity;BME280_pressure;Samples;Min_cycle;Max_cycle;Signal;HPM_P1;HPM_P2
2022/06/26 00:00:43;;;;;;;82.10;53.92;;;;;;;-145.67;100.00;66521.78;4951697;28;20416;-70
2022/06/26 00:03:08;;;;;;;87.88;57.50;;;;;;;-145.67;100.00;66521.78;4949850;28;20050;-69
2022/06/26 00:05:34;;;;;;;87.82;54.65;;;;;;;-145.67;100.00;66521.78;4949711;28;20038;-70
2022/06/26 00:08:00;;;;;;;93.32;58.35;;;;;;;-145.67;100.00;66521.78;4943897;28;20592;-69
2022/06/26 00:10:25;;;;;;;100.88;65.07;;;;;;;-145.67;100.00;66521.78;4961048;28;20044;-69
2022/06/26 00:12:51;;;;;;;96.30;62.55;;;;;;;-145.67;100.00;66521.78;4978206;28;20026;-70
2022/06/26 00:15:17;;;;;;;96.32;63.53;;;;;;;-145.67;100.00;66521.78;4969476;28;20038;-70
2022/06/26 00:17:42;;;;;;;99.82;65.93;;;;;;;-145.67;100.00;66521.78;4969560;28;20060;-70
2022/06/26 00:20:09;;;;;;;92.38;61.95;;;;;;;-145.67;100.00;66521.78;4945405;28;20093;-70
2022/06/26 00:22:34;;;;;;;91.75;58.00;;;;;;;-145.67;100.00;66521.78;4954659;28;20904;-69
2022/06/26 00:25:00;;;;;;;90.55;61.78;;;;;;;-145.67;100.00;66521.78;4947421;28;20239;-69
2022/06/26 00:27:26;;;;;;;98.05;68.10;;;;;;;-145.67;100.00;66521.78;4963866;28;20676;-69
2022/06/26 00:29:52;;;;;;;97.68;69.22;;;;;;;-145.67;100.00;66521.78;4980640;28;20058;-70
2022/06/26 00:32:18;;;;;;;94.07;63.65;;;;;;;-145.67;100.00;66521.78;4950798;28;20492;-70
2022/06/26 00:34:44;;;;;;;86.05;57.08;;;;;;;-145.67;100.00;66521.78;4963156;28;20026;-70
2022/06/26 00:37:09;;;;;;;90.13;63.10;;;;;;;-145.67;100.00;66521.78;4946717;28;20479;-71
2022/06/26 00:39:35;;;;;;;91.13;62.60;;;;;;;-145.67;100.00;66521.78;4948217;28;20046;-69
2022/06/26 00:42:00;;;;;;;79.65;53.90;;;;;;;-145.67;100.00;66521.78;4963747;28;20190;-71
2022/06/26 00:44:26;;;;;;;70.28;49.20;;;;;;;-145.67;100.00;66521.78;4956956;28;20168;-70
2022/06/26 00:46:52;;;;;;;80.90;55.53;;;;;;;-145.67;100.00;66521.78;4952205;28;20038;-69
2022/06/26 00:49:18;;;;;;;83.88;61.25;;;;;;;-145.67;100.00;66521.78;4950862;28;20034;-70
2022/06/26 00:51:47;;;;;;;73.30;50.90;;;;;;;-145.67;100.00;66521.78;4962069;28;20263;-69
2022/06/26 00:54:13;;;;;;;75.80;53.35;;;;;;;-145.67;100.00;66521.78;4949974;28;20060;-69
2022/06/26 00:56:39;;;;;;;68.85;46.42;;;;;;;-145.67;100.00;66521.78;4963903;28;20585;-69
2022/06/26 00:59:05;;;;;;;64.50;44.53;;;;;;;-145.67;100.00;66521.78;4964091;28;20045;-69
2022/06/26 01:01:34;;;;;;;66.93;44.97;;;;;;;-145.67;100.00;66521.78;4958195;28;20060;-70
2022/06/26 01:04:01;;;;;;;65.47;45.47;;;;;;;-145.67;100.00;66521.78;4960371;28;20061;-69
2022/06/26 01:06:27;;;;;;;65.25;46.40;;;;;;;-145.67;100.00;66521.78;4950379;28;20102;-70
2022/06/26 01:08:52;;;;;;;59.80;42.17;;;;;;;-145.67;100.00;66521.78;4971997;28;20271;-70
2022/06/26 01:11:18;;;;;;;58.58;39.33;;;;;;;-145.67;100.00;66521.78;4969858;28;20192;-70
2022/06/26 01:13:48;;;;;;;56.33;36.13;;;;;;;-145.67;100.00;66521.78;4966780;28;20030;-69
2022/06/26 01:16:17;;;;;;;57.92;34.35;;;;;;;-145.67;100.00;66521.78;4955706;28;20298;-70
2022/06/26 01:18:44;;;;;;;53.45;33.25;;;;;;;-145.67;100.00;66521.78;4956556;28;20038;-70
2022/06/26 01:21:10;;;;;;;42.60;28.80;;;;;;;-145.67;100.00;66521.78;4947557;28;21630;-70
2022/06/26 01:23:35;;;;;;;45.75;29.05;;;;;;;-145.67;100.00;66521.78;4949060;28;20385;-70
2022/06/26 01:26:01;;;;;;;52.00;31.40;;;;;;;-145.67;100.00;66521.78;4948131;28;20045;-69
2022/06/26 01:28:26;;;;;;;42.53;28.33;;;;;;;-145.67;100.00;66521.78;4949001;28;20293;-69
2022/06/26 01:30:52;;;;;;;40.95;26.17;;;;;;;-145.67;100.00;66521.78;4949296;28;20405;-70
2022/06/26 01:33:17;;;;;;;40.30;26.77;;;;;;;17.51;100.00;100644.97;4950702;28;20229;-70
2022/06/26 01:35:43;;;;;;;41.67;27.02;;;;;;;17.21;100.00;100641.66;4953772;28;21959;-69
2022/06/26 01:38:09;;;;;;;38.85;27.50;;;;;;;17.25;100.00;100641.88;4951593;28;20172;-70
2022/06/26 01:40:35;;;;;;;35.90;25.33;;;;;;;17.29;100.00;100627.44;4952313;28;20039;-69
2022/06/26 01:43:01;;;;;;;29.08;21.50;;;;;;;17.31;100.00;100617.09;4965746;28;20053;-70
2022/06/26 01:45:26;;;;;;;31.08;20.80;;;;;;;17.17;100.00;100610.00;4941065;28;20034;-70
2022/06/26 01:47:54;;;;;;;27.00;17.58;;;;;;;17.14;100.00;100614.13;4954058;28;20033;-70
2022/06/26 01:50:19;;;;;;;22.05;16.80;;;;;;;17.14;100.00;100613.31;4950677;28;20030;-70
2022/06/26 01:52:45;;;;;;;24.48;17.83;;;;;;;17.08;100.00;100621.50;4966943;28;20380;-70
2022/06/26 01:55:10;;;;;;;26.98;18.63;;;;;;;17.27;100.00;100623.41;4951409;28;20427;-70
2022/06/26 01:57:36;;;;;;;28.23;18.33;;;;;;;17.15;100.00;100613.00;4951562;28;20116;-70
2022/06/26 02:00:04;;;;;;;24.30;17.90;;;;;;;17.23;100.00;100609.63;4952144;28;20077;-69
2022/06/26 02:02:30;;;;;;;28.15;18.23;;;;;;;17.37;100.00;100612.41;4940425;28;20057;-69
2022/06/26 02:04:55;;;;;;;26.15;17.98;;;;;;;17.48;100.00;100613.84;4952949;28;20030;-72
2022/06/26 02:07:21;;;;;;;25.85;17.55;;;;;;;17.54;100.00;100618.09;4947187;28;20183;-72
2022/06/26 02:15:16;;;;;;;34.10;21.70;;;;;;;17.59;100.00;100615.31;4946921;28;20246;-71
2022/06/26 02:17:42;;;;;;;31.52;21.85;;;;;;;17.36;100.00;100613.50;4947000;28;20585;-70
2022/06/26 02:20:09;;;;;;;35.67;23.13;;;;;;;17.69;100.00;100610.81;4979031;28;20102;-71
2022/06/26 02:22:34;;;;;;;32.05;23.20;;;;;;;17.19;100.00;100618.66;4946214;28;20187;-72
2022/06/26 02:25:00;;;;;;;42.13;28.48;;;;;;;17.27;100.00;100601.72;4947592;28;20511;-71
2022/06/26 02:27:27;;;;;;;47.85;32.78;;;;;;;17.33;100.00;100606.75;4962246;28;20133;-71
2022/06/26 02:29:52;;;;;;;62.60;41.38;;;;;;;17.62;100.00;100606.56;4943673;28;20064;-71
2022/06/26 02:32:18;;;;;;;56.45;39.47;;;;;;;17.22;100.00;100596.38;4947236;28;20332;-71
2022/06/26 02:34:43;;;;;;;56.53;37.97;;;;;;;17.38;100.00;100593.13;4954536;28;20514;-71
2022/06/26 02:37:08;;;;;;;49.60;34.40;;;;;;;17.57;100.00;100592.25;4966046;28;20038;-72
2022/06/26 02:39:34;;;;;;;65.30;39.10;;;;;;;17.71;100.00;100579.56;4946071;28;20074;-72
2022/06/26 02:42:00;;;;;;;58.25;38.40;;;;;;;17.70;100.00;100582.56;4947469;28;20169;-71
2022/06/26 02:44:26;;;;;;;52.70;35.22;;;;;;;17.86;100.00;100594.78;4947033;28;20034;-71
2022/06/26 02:46:51;;;;;;;66.20;45.65;;;;;;;17.70;100.00;100594.25;4959964;28;20034;-72
2022/06/26 02:49:17;;;;;;;55.97;39.10;;;;;;;17.22;100.00;100599.09;4944192;28;20069;-71
2022/06/26 02:51:43;;;;;;;54.95;36.30;;;;;;;16.94;100.00;100609.81;4951874;28;20042;-70
2022/06/26 02:54:08;;;;;;;57.75;35.72;;;;;;;17.07;100.00;100606.34;4947357;28;22350;-71
2022/06/26 02:56:34;;;;;;;53.90;33.28;;;;;;;17.01;100.00;100604.81;4944694;28;21887;-70
2022/06/26 02:59:00;;;;;;;52.00;37.33;;;;;;;16.99;100.00;100595.38;4944394;28;20175;-71
2022/06/26 03:01:26;;;;;;;59.97;39.25;;;;;;;17.06;100.00;100606.66;4945989;28;20585;-71
2022/06/26 03:03:52;;;;;;;56.72;39.33;;;;;;;17.06;100.00;100602.03;4947131;28;20507;-71
2022/06/26 03:06:17;;;;;;;57.08;39.58;;;;;;;16.87;100.00;100595.00;4945802;28;20034;-70
2022/06/26 03:08:43;;;;;;;57.05;37.88;;;;;;;16.71;100.00;100597.94;4945628;28;20118;-71
2022/06/26 03:11:09;;;;;;;60.05;41.65;;;;;;;16.79;100.00;100607.31;4946510;28;20362;-72
2022/06/26 03:13:35;;;;;;;59.70;39.25;;;;;;;-145.67;100.00;66521.78;4945787;28;20049;-72
2022/06/26 03:16:01;;;;;;;52.15;34.17;;;;;;;-145.67;100.00;66521.78;4946029;28;20034;-71
2022/06/26 03:18:26;;;;;;;59.38;38.05;;;;;;;-145.67;100.00;66521.78;4946562;28;20369;-71
2022/06/26 03:20:52;;;;;;;49.72;32.72;;;;;;;-145.67;100.00;66521.78;4949709;28;20710;-70
2022/06/26 03:23:17;;;;;;;49.47;32.65;;;;;;;-145.67;100.00;66521.78;4951097;28;20455;-70
2022/06/26 03:25:43;;;;;;;45.13;28.42;;;;;;;-145.67;100.00;66521.78;4950786;28;20034;-71
2022/06/26 03:28:08;;;;;;;48.03;28.77;;;;;;;-145.67;100.00;66521.78;4967049;28;20350;-71
2022/06/26 03:30:34;;;;;;;46.22;27.15;;;;;;;-145.67;100.00;66521.78;4961888;28;20121;-71
2022/06/26 03:33:00;;;;;;;39.85;25.58;;;;;;;-145.67;100.00;66521.78;4949452;28;20140;-71
2022/06/26 03:35:25;;;;;;;38.70;23.10;;;;;;;-145.67;100.00;66521.78;4951254;28;20459;-71
2022/06/26 03:37:51;;;;;;;33.00;19.13;;;;;;;-145.67;100.00;66521.78;4970081;28;20038;-71
2022/06/26 03:40:17;;;;;;;26.15;17.08;;;;;;;-145.67;100.00;66521.78;4967150;28;20034;-72
2022/06/26 03:42:42;;;;;;;30.70;17.80;;;;;;;-145.67;100.00;66521.78;4967645;28;20247;-71
2022/06/26 03:45:08;;;;;;;22.95;12.82;;;;;;;-145.67;100.00;66521.78;4941300;28;20054;-72
2022/06/26 03:47:34;;;;;;;19.52;12.80;;;;;;;-145.67;100.00;66521.78;4948861;28;20435;-70
2022/06/26 03:50:00;;;;;;;25.17;15.43;;;;;;;-145.67;100.00;66521.78;4963193;28;20793;-71
2022/06/26 03:52:26;;;;;;;17.85;9.95;;;;;;;-145.67;100.00;66521.78;4966661;28;20254;-72
2022/06/26 03:54:52;;;;;;;16.02;7.97;;;;;;;-145.67;100.00;66521.78;4969363;28;20410;-71
2022/06/26 03:57:18;;;;;;;34.80;21.10;;;;;;;-145.67;100.00;66521.78;4972312;28;20431;-71
2022/06/26 03:59:44;;;;;;;28.73;18.88;;;;;;;-145.67;100.00;66521.78;4954090;28;20207;-72
2022/06/26 04:02:09;;;;;;;36.17;25.73;;;;;;;-145.67;100.00;66521.78;4948119;28;20167;-72
2022/06/26 04:04:35;;;;;;;35.15;24.02;;;;;;;-145.67;100.00;66521.78;4961410;28;20438;-71
2022/06/26 04:07:00;;;;;;;40.67;26.48;;;;;;;-145.67;100.00;66521.78;4954584;28;20046;-69
2022/06/26 04:09:26;;;;;;;49.28;33.67;;;;;;;-145.67;100.00;66521.78;4947910;28;20043;-68
2022/06/26 04:11:52;;;;;;;48.80;32.50;;;;;;;-145.67;100.00;66521.78;4974971;28;20631;-70
2022/06/26 04:14:17;;;;;;;38.92;26.90;;;;;;;-145.67;100.00;66521.78;4957192;28;20038;-70
2022/06/26 04:16:43;;;;;;;46.70;33.40;;;;;;;-145.67;100.00;66521.78;4958890;28;20188;-69
2022/06/26 04:19:09;;;;;;;39.47;26.98;;;;;;;-145.67;100.00;66521.78;4964195;28;20473;-69
2022/06/26 04:21:34;;;;;;;34.80;22.33;;;;;;;-145.67;100.00;66521.78;4957900;28;20680;-69
2022/06/26 04:24:00;;;;;;;41.80;30.90;;;;;;;-145.67;100.00;66521.78;4965708;28;20294;-70
2022/06/26 04:26:26;;;;;;;43.38;30.35;;;;;;;-145.67;100.00;66521.78;4960834;28;20538;-69
2022/06/26 04:28:51;;;;;;;51.10;33.40;;;;;;;-145.67;100.00;66521.78;4966106;28;20605;-70
2022/06/26 04:31:18;;;;;;;45.28;31.27;;;;;;;-145.67;100.00;66521.78;4960252;28;20732;-69
2022/06/26 04:33:43;;;;;;;39.70;27.08;;;;;;;-145.67;100.00;66521.78;4947466;28;20171;-69
2022/06/26 04:36:09;;;;;;;44.72;31.92;;;;;;;-145.67;100.00;66521.78;4962470;28;20049;-68
2022/06/26 04:38:35;;;;;;;35.95;26.10;;;;;;;-145.67;100.00;66521.78;4949151;28;20751;-70
2022/06/26 04:41:31;;;;;;;44.97;29.70;;;;;;;-145.67;100.00;66521.78;4949730;28;20332;-69
2022/06/26 04:43:46;;;;;;;49.97;33.08;;;;;;;-145.67;100.00;66521.78;4941273;28;20054;-69
2022/06/26 04:46:11;;;;;;;44.03;27.65;;;;;;;-145.67;100.00;66521.78;4948793;28;22176;-70
2022/06/26 04:48:37;;;;;;;38.42;26.83;;;;;;;-145.67;100.00;66521.78;4947882;28;20133;-70
2022/06/26 04:51:02;;;;;;;44.53;29.50;;;;;;;-145.67;100.00;66521.78;4950158;28;20322;-69
2022/06/26 04:53:27;;;;;;;46.08;34.40;;;;;;;-145.67;100.00;66521.78;4961460;28;20100;-68
2022/06/26 04:55:53;;;;;;;40.83;28.45;;;;;;;-145.67;100.00;66521.78;4947875;28;20050;-69
2022/06/26 04:58:24;;;;;;;33.25;24.85;;;;;;;-145.67;100.00;66521.78;4961483;28;20301;-68
2022/06/26 05:00:50;;;;;;;36.05;25.50;;;;;;;-145.67;100.00;66521.78;4951899;28;20179;-68
2022/06/26 05:03:16;;;;;;;37.42;23.05;;;;;;;-145.67;100.00;66521.78;4969991;28;21901;-70
2022/06/26 05:05:41;;;;;;;39.17;25.70;;;;;;;-145.67;100.00;66521.78;4982060;28;20045;-69
2022/06/26 05:08:06;;;;;;;40.30;24.30;;;;;;;-145.67;100.00;66521.78;4970817;28;20494;-69
2022/06/26 05:10:32;;;;;;;18.85;11.75;;;;;;;-145.67;100.00;66521.78;4967554;28;20153;-69
2022/06/26 05:12:58;;;;;;;11.40;6.78;;;;;;;-145.67;100.00;66521.78;4966128;28;20367;-69
2022/06/26 05:15:24;;;;;;;9.75;5.53;;;;;;;-145.67;100.00;66521.78;4982219;28;20133;-69
2022/06/26 05:17:50;;;;;;;15.43;5.72;;;;;;;-145.67;100.00;66521.78;4966699;28;20041;-70
2022/06/26 05:20:15;;;;;;;11.82;5.70;;;;;;;-145.67;100.00;66521.78;4981952;28;20760;-68
2022/06/26 05:22:40;;;;;;;13.30;5.15;;;;;;;-145.67;100.00;66521.78;4973596;28;20045;-69
2022/06/26 05:25:06;;;;;;;10.05;5.43;;;;;;;-145.67;100.00;66521.78;4965082;28;20117;-71
2022/06/26 05:27:32;;;;;;;15.10;6.35;;;;;;;-145.67;100.00;66521.78;4968559;28;20038;-69
2022/06/26 05:29:57;;;;;;;10.73;5.45;;;;;;;-145.67;100.00;66521.78;4970046;28;20491;-70
2022/06/26 05:32:23;;;;;;;10.77;5.40;;;;;;;-145.67;100.00;66521.78;4954848;28;20052;-69
2022/06/26 05:34:49;;;;;;;10.57;6.18;;;;;;;-145.67;100.00;66521.78;4965383;28;20452;-70
2022/06/26 05:37:14;;;;;;;11.65;6.03;;;;;;;-145.67;100.00;66521.78;4975229;28;20647;-69
2022/06/26 05:39:39;;;;;;;9.23;6.13;;;;;;;-145.67;100.00;66521.78;4962683;28;20517;-71
2022/06/26 05:42:05;;;;;;;11.57;6.60;;;;;;;-145.67;100.00;66521.78;4968350;28;20037;-69
2022/06/26 05:44:31;;;;;;;13.20;7.82;;;;;;;-145.67;100.00;66521.78;4955148;28;20045;-69
2022/06/26 05:46:56;;;;;;;14.00;6.85;;;;;;;-145.67;100.00;66521.78;4966629;28;20152;-69
2022/06/26 05:49:22;;;;;;;11.10;7.40;;;;;;;-145.67;100.00;66521.78;4965218;28;20064;-69
2022/06/26 05:51:48;;;;;;;10.15;6.80;;;;;;;-145.67;100.00;66521.78;4972832;28;20048;-68
2022/06/26 05:54:13;;;;;;;11.18;7.95;;;;;;;-145.67;100.00;66521.78;4965921;28;20500;-68
2022/06/26 05:56:39;;;;;;;12.18;7.30;;;;;;;-145.67;100.00;66521.78;4981658;28;20196;-70
2022/06/26 05:59:04;;;;;;;14.95;7.28;;;;;;;-145.67;100.00;66521.78;4978100;28;20033;-69
2022/06/26 06:01:30;;;;;;;11.98;7.63;;;;;;;-145.67;100.00;66521.78;4954734;28;20107;-69
2022/06/26 06:03:56;;;;;;;14.40;7.72;;;;;;;-145.67;100.00;66521.78;4974840;28;20509;-69
2022/06/26 06:06:22;;;;;;;10.88;6.50;;;;;;;-145.67;100.00;66521.78;4969890;28;20116;-69
2022/06/26 06:08:48;;;;;;;9.52;6.55;;;;;;;-145.67;100.00;66521.78;4982919;28;20180;-70
2022/06/26 06:11:14;;;;;;;11.02;6.32;;;;;;;-145.67;100.00;66521.78;4979038;28;20026;-69
2022/06/26 06:13:39;;;;;;;9.23;6.32;;;;;;;-145.67;100.00;66521.78;4976328;28;20065;-70
2022/06/26 06:16:06;;;;;;;10.65;6.57;;;;;;;-145.67;100.00;66521.78;4978336;28;20260;-70
2022/06/26 06:18:33;;;;;;;10.90;7.18;;;;;;;-145.67;100.00;66521.78;4975913;28;20172;-69
2022/06/26 06:20:59;;;;;;;10.68;6.97;;;;;;;-145.67;100.00;66521.78;4954342;28;20485;-69
2022/06/26 06:23:24;;;;;;;12.73;6.55;;;;;;;-145.67;100.00;66521.78;4977330;28;20316;-69
2022/06/26 06:25:49;;;;;;;10.40;6.60;;;;;;;-145.67;100.00;66521.78;4976606;28;20198;-69
2022/06/26 06:28:15;;;;;;;10.27;5.88;;;;;;;-145.67;100.00;66521.78;4980560;28;20269;-70
2022/06/26 06:30:43;;;;;;;8.75;5.88;;;;;;;-145.67;100.00;66521.78;4977858;28;20030;-70
2022/06/26 06:33:08;;;;;;;8.20;5.93;;;;;;;-145.67;100.00;66521.78;4962557;28;20315;-71
2022/06/26 06:35:34;;;;;;;11.00;6.15;;;;;;;-145.67;100.00;66521.78;4971105;28;20450;-70
2022/06/26 06:37:59;;;;;;;7.57;5.60;;;;;;;-145.67;100.00;66521.78;4971976;28;20178;-70
2022/06/26 06:40:25;;;;;;;12.43;5.57;;;;;;;-145.67;100.00;66521.78;4977760;28;20038;-70
2022/06/26 06:42:51;;;;;;;10.30;5.50;;;;;;;-145.67;100.00;66521.78;4982284;28;20365;-71
2022/06/26 06:45:16;;;;;;;10.15;5.53;;;;;;;-145.67;100.00;66521.78;4977024;28;20044;-70
2022/06/26 06:47:43;;;;;;;10.50;5.53;;;;;;;-145.67;100.00;66521.78;4977877;28;20138;-70
2022/06/26 06:50:09;;;;;;;8.10;5.30;;;;;;;-145.67;100.00;66521.78;4980658;28;20197;-70
2022/06/26 06:52:35;;;;;;;9.68;4.97;;;;;;;-145.67;100.00;66521.78;4978016;28;20210;-71
2022/06/26 06:55:02;;;;;;;11.05;4.97;;;;;;;-145.67;100.00;66521.78;4979682;28;20032;-70
2022/06/26 06:57:27;;;;;;;8.43;4.72;;;;;;;-145.67;100.00;66521.78;4979795;28;20199;-71
2022/06/26 06:59:53;;;;;;;8.00;3.72;;;;;;;-145.67;100.00;66521.78;4982601;28;20938;-70
2022/06/26 07:02:18;;;;;;;5.90;3.28;;;;;;;-145.67;100.00;66521.78;4981145;28;20241;-71
2022/06/26 07:04:44;;;;;;;8.57;3.75;;;;;;;-145.67;100.00;66521.78;4997064;28;20048;-71
2022/06/26 07:07:10;;;;;;;7.57;3.67;;;;;;;-145.67;100.00;66521.78;4986571;28;20647;-70
2022/06/26 07:09:36;;;;;;;6.85;3.65;;;;;;;-145.67;100.00;66521.78;4980951;28;20041;-70
2022/06/26 07:12:02;;;;;;;7.50;3.03;;;;;;;-145.67;100.00;66521.78;4980593;28;20063;-71
2022/06/26 07:14:27;;;;;;;9.50;2.95;;;;;;;-145.67;100.00;66521.78;4982894;28;20333;-72
2022/06/26 07:16:53;;;;;;;8.75;3.05;;;;;;;-145.67;100.00;66521.78;4995452;28;20714;-70
2022/06/26 07:19:18;;;;;;;6.53;2.50;;;;;;;-145.67;100.00;66521.78;4996240;28;20065;-71
2022/06/26 07:21:44;;;;;;;7.75;2.60;;;;;;;-145.67;100.00;66521.78;4995042;28;20132;-72
2022/06/26 07:24:11;;;;;;;6.50;2.20;;;;;;;-145.67;100.00;66521.78;4967689;28;20056;-70
2022/06/26 07:26:37;;;;;;;5.68;2.40;;;;;;;-145.67;100.00;66521.78;4968508;28;20678;-72
2022/06/26 07:29:02;;;;;;;8.95;2.80;;;;;;;-145.67;100.00;66521.78;4985053;28;20141;-71
2022/06/26 07:31:28;;;;;;;10.00;3.35;;;;;;;-145.67;100.00;66521.78;4977390;28;20036;-71
2022/06/26 07:34:12;;;;;;;7.32;3.40;;;;;;;-145.67;100.00;66521.78;4991075;28;20029;-70
2022/06/26 07:36:45;;;;;;;5.22;2.22;;;;;;;-145.67;100.00;66521.78;4977964;28;20038;-70
2022/06/26 07:39:12;;;;;;;5.70;2.25;;;;;;;-145.67;100.00;66521.78;4978706;28;20046;-71
2022/06/26 07:41:38;;;;;;;5.28;2.15;;;;;;;-145.67;100.00;66521.78;4979054;28;20478;-71
2022/06/26 07:44:04;;;;;;;6.72;2.33;;;;;;;-145.67;100.00;66521.78;4980893;28;20250;-72
2022/06/26 07:46:30;;;;;;;7.00;2.33;;;;;;;-145.67;100.00;66521.78;4995039;28;20358;-71
2022/06/26 07:48:56;;;;;;;7.60;2.10;;;;;;;-145.67;100.00;66521.78;4982635;28;20458;-71
2022/06/26 07:51:22;;;;;;;4.38;1.95;;;;;;;-145.67;100.00;66521.78;4980306;28;20029;-71
2022/06/26 07:53:48;;;;;;;6.32;2.10;;;;;;;-145.67;100.00;66521.78;4979487;28;20545;-71
2022/06/26 07:56:13;;;;;;;6.00;1.85;;;;;;;-145.67;100.00;66521.78;4985178;28;20584;-71
2022/06/26 07:58:39;;;;;;;5.82;1.92;;;;;;;-145.67;100.00;66521.78;4979608;28;20030;-73
2022/06/26 08:01:05;;;;;;;6.47;1.73;;;;;;;-145.67;100.00;66521.78;4978555;28;20050;-71
2022/06/26 08:03:31;;;;;;;8.02;2.08;;;;;;;-145.67;100.00;66521.78;4975474;28;20054;-72
2022/06/26 08:05:56;;;;;;;6.18;2.08;;;;;;;-145.67;100.00;66521.78;4977503;28;20120;-72
2022/06/26 08:08:22;;;;;;;6.68;1.98;;;;;;;-145.67;100.00;66521.78;4975190;28;20052;-72
2022/06/26 08:10:47;;;;;;;7.35;2.20;;;;;;;-145.67;100.00;66521.78;4978545;28;20159;-72
2022/06/26 08:13:13;;;;;;;9.10;2.00;;;;;;;-145.67;100.00;66521.78;4975164;28;20026;-72
2022/06/26 08:15:39;;;;;;;5.88;1.88;;;;;;;-145.67;100.00;66521.78;4982521;28;20572;-71
2022/06/26 08:18:05;;;;;;;7.10;1.73;;;;;;;-145.67;100.00;66521.78;4989431;28;20578;-71
2022/06/26 08:20:31;;;;;;;4.45;1.63;;;;;;;-145.67;100.00;66521.78;4969888;28;20808;-72
2022/06/26 08:22:57;;;;;;;8.07;1.92;;;;;;;-145.67;100.00;66521.78;4975922;28;20045;-71
2022/06/26 08:25:22;;;;;;;4.25;1.50;;;;;;;-145.67;100.00;66521.78;4974945;28;20030;-72
2022/06/26 08:27:48;;;;;;;4.70;1.60;;;;;;;-145.67;100.00;66521.78;4975777;28;20186;-72
2022/06/26 08:30:14;;;;;;;4.35;1.27;;;;;;;-145.67;100.00;66521.78;4976896;28;20344;-73
2022/06/26 08:32:39;;;;;;;4.25;1.60;;;;;;;-145.67;100.00;66521.78;4992508;28;20157;-71
2022/06/26 08:35:06;;;;;;;7.28;1.70;;;;;;;-145.67;100.00;66521.78;4973159;28;20353;-72
2022/06/26 08:37:32;;;;;;;4.70;1.67;;;;;;;-145.67;100.00;66521.78;4988739;28;20033;-73
2022/06/26 08:40:00;;;;;;;5.28;1.55;;;;;;;-145.67;100.00;66521.78;4966908;28;20735;-72
2022/06/26 08:42:26;;;;;;;5.75;1.80;;;;;;;-145.67;100.00;66521.78;4955762;28;20033;-72
2022/06/26 08:44:56;;;;;;;6.03;2.00;;;;;;;-145.67;100.00;66521.78;4976581;28;20554;-72
2022/06/26 08:47:26;;;;;;;7.38;1.90;;;;;;;-145.67;100.00;66521.78;4981731;28;20033;-73
2022/06/26 08:49:52;;;;;;;7.15;1.77;;;;;;;-145.67;100.00;66521.78;4975861;28;20632;-73
2022/06/26 08:52:20;;;;;;;5.60;1.58;;;;;;;-145.67;100.00;66521.78;4980011;28;20095;-72
2022/06/26 08:54:45;;;;;;;6.32;1.80;;;;;;;-145.67;100.00;66521.78;4975170;28;21016;-74
2022/06/26 08:57:14;;;;;;;4.35;1.60;;;;;;;-145.67;100.00;66521.78;4974836;28;20551;-72
2022/06/26 08:59:40;;;;;;;5.45;1.60;;;;;;;-145.67;100.00;66521.78;4971673;28;20608;-73
2022/06/26 09:02:06;;;;;;;6.63;1.95;;;;;;;-145.67;100.00;66521.78;4989785;28;20056;-72
2022/06/26 09:04:31;;;;;;;5.63;1.60;;;;;;;-145.67;100.00;66521.78;4973176;28;20126;-72
2022/06/26 09:06:57;;;;;;;4.35;1.60;;;;;;;-145.67;100.00;66521.78;4964436;28;20588;-72
2022/06/26 09:09:27;;;;;;;4.53;1.65;;;;;;;-145.67;100.00;66521.78;4949151;28;20045;-73
2022/06/26 09:12:00;;;;;;;4.93;1.60;;;;;;;-145.67;100.00;66521.78;4976359;28;20203;-73
2022/06/26 09:14:28;;;;;;;3.15;1.60;;;;;;;-145.67;100.00;66521.78;4959421;28;20048;-73
2022/06/26 09:16:54;;;;;;;3.67;1.55;;;;;;;-145.67;100.00;66521.78;4975984;28;20417;-73
2022/06/26 09:19:23;;;;;;;4.35;1.30;;;;;;;-145.67;100.00;66521.78;4975518;28;20081;-72
2022/06/26 09:21:51;;;;;;;4.22;1.40;;;;;;;-145.67;100.00;66521.78;4976749;28;20726;-72
2022/06/26 09:24:19;;;;;;;4.53;1.20;;;;;;;-145.67;100.00;66521.78;4975199;28;22053;-73
2022/06/26 09:26:45;;;;;;;4.28;1.58;;;;;;;-145.67;100.00;66521.78;4976184;28;20556;-73
2022/06/26 09:29:13;;;;;;;4.53;1.33;;;;;;;-145.67;100.00;66521.78;4975852;28;20524;-73
2022/06/26 09:31:39;;;;;;;4.55;1.52;;;;;;;-145.67;100.00;66521.78;4986430;28;20049;-72
2022/06/26 09:34:06;;;;;;;5.13;1.45;;;;;;;-145.67;100.00;66521.78;4989167;28;20853;-73
2022/06/26 09:36:31;;;;;;;4.60;1.40;;;;;;;-145.67;100.00;66521.78;4981775;28;20030;-73
2022/06/26 09:38:57;;;;;;;5.50;1.45;;;;;;;-145.67;100.00;66521.78;4974856;28;20057;-72
2022/06/26 09:41:30;;;;;;;3.55;1.30;;;;;;;-145.67;100.00;66521.78;4974278;28;20079;-74
2022/06/26 09:43:57;;;;;;;5.10;1.98;;;;;;;-145.67;100.00;66521.78;4936351;28;20373;-73
2022/06/26 09:46:31;;;;;;;5.72;1.60;;;;;;;-145.67;100.00;66521.78;4944800;28;20135;-72
2022/06/26 09:48:57;;;;;;;2.38;1.33;;;;;;;-145.67;100.00;66521.78;4969837;28;20036;-73
2022/06/26 09:51:23;;;;;;;6.80;1.70;;;;;;;-145.67;100.00;66521.78;4957484;28;20033;-73
2022/06/26 09:53:49;;;;;;;5.70;1.60;;;;;;;-145.67;100.00;66521.78;4943884;28;20414;-73
2022/06/26 09:56:14;;;;;;;4.90;2.05;;;;;;;-145.67;100.00;66521.78;4957446;28;20042;-73
2022/06/26 09:58:41;;;;;;;6.03;1.90;;;;;;;-145.67;100.00;66521.78;4956986;28;20038;-71
2022/06/26 10:06:36;;;;;;;5.35;2.17;;;;;;;-145.67;100.00;66521.78;4956409;28;20055;-73
2022/06/26 10:09:04;;;;;;;4.88;1.90;;;;;;;-145.67;100.00;66521.78;4977862;28;20068;-72
2022/06/26 10:11:34;;;;;;;6.57;2.42;;;;;;;-145.67;100.00;66521.78;4958552;28;20076;-77
2022/06/26 10:14:08;;;;;;;5.73;3.00;;;;;;;-145.67;100.00;66521.78;4960978;28;20191;-76
2022/06/26 10:17:04;;;;;;;6.97;2.78;;;;;;;-145.67;100.00;66521.78;4992531;28;20029;-74
2022/06/26 10:19:59;;;;;;;6.63;3.47;;;;;;;-145.67;100.00;66521.78;4977877;28;20261;-75
2022/06/26 10:22:24;;;;;;;7.25;2.63;;;;;;;-145.67;100.00;66521.78;4975893;28;20033;-75
2022/06/26 10:24:51;;;;;;;8.65;2.90;;;;;;;-145.67;100.00;66521.78;4975112;28;20041;-77
2022/06/26 10:27:25;;;;;;;7.72;3.00;;;;;;;-145.67;100.00;66521.78;4977473;28;20137;-74
2022/06/26 10:30:08;;;;;;;7.97;2.75;;;;;;;-145.67;100.00;66521.78;4977075;28;20037;-72
2022/06/26 10:32:34;;;;;;;5.88;2.63;;;;;;;-145.67;100.00;66521.78;4982752;28;20038;-76
2022/06/26 10:35:00;;;;;;;5.63;2.88;;;;;;;-145.67;100.00;66521.78;4987161;28;20144;-74
2022/06/26 10:37:26;;;;;;;5.22;2.63;;;;;;;-145.67;100.00;66521.78;4979956;28;20332;-74
2022/06/26 10:39:53;;;;;;;5.43;3.25;;;;;;;-145.67;100.00;66521.78;4980404;28;21762;-76
2022/06/26 10:45:21;;;;;;;8.73;2.80;;;;;;;-145.67;100.00;66521.78;4980538;28;20041;-73
2022/06/26 10:47:53;;;;;;;4.60;2.60;;;;;;;-145.67;100.00;66521.78;4963223;28;20119;-73
2022/06/26 10:50:41;;;;;;;5.65;2.53;;;;;;;-145.67;100.00;66521.78;4957087;28;20033;-71
2022/06/26 10:53:16;;;;;;;6.82;2.70;;;;;;;-145.67;100.00;66521.78;4979590;28;20050;-74
2022/06/26 10:55:48;;;;;;;5.13;2.30;;;;;;;-145.67;100.00;66521.78;4979938;28;20076;-75
2022/06/26 10:58:38;;;;;;;5.75;2.40;;;;;;;-145.67;100.00;66521.78;4983766;28;20119;-76
2022/06/26 11:01:06;;;;;;;9.10;3.05;;;;;;;-145.67;100.00;66521.78;4979188;28;20037;-75
2022/06/26 11:03:32;;;;;;;6.50;2.80;;;;;;;-145.67;100.00;66521.78;4981031;28;20136;-73
2022/06/26 11:06:03;;;;;;;5.28;2.42;;;;;;;-145.67;100.00;66521.78;4994813;28;20038;-74
2022/06/26 11:08:39;;;;;;;6.95;2.75;;;;;;;-145.67;100.00;66521.78;4980747;28;20064;-76
2022/06/26 11:11:07;;;;;;;5.82;2.72;;;;;;;-145.67;100.00;66521.78;4956490;28;20604;-74
2022/06/26 11:13:34;;;;;;;8.40;2.70;;;;;;;-145.67;100.00;66521.78;4960574;28;20403;-74